sensor_id;sensor_type;location;lat;lon;timestamp;pressure;altitude;pressure_sealevel;temperature;humidity
12471;BME280;36499;46.484;13.832;2023-02-22T00:00:26;93276.88;;;3.23;78.44
12471;BME280;36499;46.484;13.832;2023-02-22T00:03:11;93280.09;;;3.17;79.00
12471;BME280;36499;46.484;13.832;2023-02-22T00:05:40;93278.66;;;3.15;78.64
12471;BME280;36499;46.484;13.832;2023-02-22T00:08:12;93281.38;;;3.05;77.69
12471;BME280;36499;46.484;13.832;2023-02-22T00:10:39;93272.38;;;3.01;79.10
12471;BME280;36499;46.484;13.832;2023-02-22T00:13:10;93279.13;;;3.02;78.25
12471;BME280;36499;46.484;13.832;2023-02-22T00:15:38;93270.78;;;3.00;79.81
12471;BME280;36499;46.484;13.832;2023-02-22T00:18:09;93276.41;;;2.96;80.03
12471;BME280;36499;46.484;13.832;2023-02-22T00:20:38;93270.31;;;2.97;80.43
12471;BME280;36499;46.484;13.832;2023-02-22T00:23:08;93270.59;;;3.02;81.69
12471;BME280;36499;46.484;13.832;2023-02-22T00:25:36;93277.38;;;2.95;81.32
12471;BME280;36499;46.484;13.832;2023-02-22T00:28:04;93269.31;;;2.98;79.49
12471;BME280;36499;46.484;13.832;2023-02-22T00:30:32;93273.19;;;2.94;79.99
12471;BME280;36499;46.484;13.832;2023-02-22T00:33:00;93274.31;;;2.99;80.17
12471;BME280;36499;46.484;13.832;2023-02-22T00:35:30;93274.47;;;2.89;79.90
12471;BME280;36499;46.484;13.832;2023-02-22T00:37:59;93269.34;;;2.81;80.47
12471;BME280;36499;46.484;13.832;2023-02-22T00:40:30;93276.75;;;2.93;80.64
12471;BME280;36499;46.484;13.832;2023-02-22T00:42:59;93277.69;;;3.00;80.13
12471;BME280;36499;46.484;13.832;2023-02-22T00:45:28;93274.78;;;3.03;78.94
12471;BME280;36499;46.484;13.832;2023-02-22T00:47:57;93269.63;;;3.03;79.28
12471;BME280;36499;46.484;13.832;2023-02-22T00:50:28;93270.28;;;3.05;78.89
12471;BME280;36499;46.484;13.832;2023-02-22T00:52:58;93265.63;;;3.00;79.28
12471;BME280;36499;46.484;13.832;2023-02-22T00:55:28;93263.69;;;3.02;79.04
12471;BME280;36499;46.484;13.832;2023-02-22T00:57:57;93268.34;;;2.99;78.84
12471;BME280;36499;46.484;13.832;2023-02-22T01:00:27;93265.16;;;2.97;78.43
12471;BME280;36499;46.484;13.832;2023-02-22T01:02:55;93263.88;;;2.93;78.33
12471;BME280;36499;46.484;13.832;2023-02-22T01:05:26;93261.94;;;2.86;79.25
12471;BME280;36499;46.484;13.832;2023-02-22T01:07:56;93255.00;;;2.87;79.07
12471;BME280;36499;46.484;13.832;2023-02-22T01:10:28;93256.97;;;2.85;80.00
12471;BME280;36499;46.484;13.832;2023-02-22T01:12:57;93250.00;;;2.85;80.59
12471;BME280;36499;46.484;13.832;2023-02-22T01:15:27;93253.56;;;2.76;80.53
12471;BME280;36499;46.484;13.832;2023-02-22T01:17:57;93253.91;;;2.81;81.15
12471;BME280;36499;46.484;13.832;2023-02-22T01:20:26;93244.72;;;2.79;81.45
12471;BME280;36499;46.484;13.832;2023-02-22T01:22:57;93238.75;;;2.78;81.09
12471;BME280;36499;46.484;13.832;2023-02-22T01:25:29;93240.72;;;2.68;80.96
12471;BME280;36499;46.484;13.832;2023-02-22T01:27:59;93234.59;;;2.61;82.53
12471;BME280;36499;46.484;13.832;2023-02-22T01:30:30;93240.72;;;2.68;81.51
12471;BME280;36499;46.484;13.832;2023-02-22T01:33:00;93227.50;;;2.79;81.35
12471;BME280;36499;46.484;13.832;2023-02-22T01:35:29;93229.41;;;2.85;80.88
12471;BME280;36499;46.484;13.832;2023-02-22T01:37:59;93225.88;;;2.86;80.06
12471;BME280;36499;46.484;13.832;2023-02-22T01:40:29;93216.59;;;2.69;81.51
12471;BME280;36499;46.484;13.832;2023-02-22T01:42:59;93225.09;;;2.78;81.39
12471;BME280;36499;46.484;13.832;2023-02-22T01:45:57;93218.69;;;2.74;81.10
12471;BME280;36499;46.484;13.832;2023-02-22T01:48:34;93209.47;;;2.87;80.51
12471;BME280;36499;46.484;13.832;2023-02-22T01:51:12;93219.13;;;2.85;78.90
12471;BME280;36499;46.484;13.832;2023-02-22T01:53:47;93218.16;;;2.78;78.90
12471;BME280;36499;46.484;13.832;2023-02-22T01:56:18;93216.72;;;2.76;78.88
12471;BME280;36499;46.484;13.832;2023-02-22T01:58:50;93222.50;;;2.78;78.69
12471;BME280;36499;46.484;13.832;2023-02-22T02:01:21;93211.59;;;2.68;78.64
12471;BME280;36499;46.484;13.832;2023-02-22T02:03:51;93209.34;;;2.65;79.44
12471;BME280;36499;46.484;13.832;2023-02-22T02:06:23;93207.91;;;2.62;79.80
12471;BME280;36499;46.484;13.832;2023-02-22T02:08:59;93210.16;;;2.57;79.13
12471;BME280;36499;46.484;13.832;2023-02-22T02:11:28;93210.78;;;2.51;80.08
12471;BME280;36499;46.484;13.832;2023-02-22T02:13:57;93203.56;;;2.55;79.25
12471;BME280;36499;46.484;13.832;2023-02-22T02:16:33;93208.22;;;2.51;79.91
12471;BME280;36499;46.484;13.832;2023-02-22T02:19:02;93205.81;;;2.41;80.25
12471;BME280;36499;46.484;13.832;2023-02-22T02:25:55;93205.16;;;2.48;80.36
12471;BME280;36499;46.484;13.832;2023-02-22T02:29:05;93200.84;;;2.32;80.19
12471;BME280;36499;46.484;13.832;2023-02-22T02:32:21;93203.41;;;2.32;80.92
12471;BME280;36499;46.484;13.832;2023-02-22T02:35:01;93200.66;;;2.25;81.73
12471;BME280;36499;46.484;13.832;2023-02-22T02:37:36;93201.16;;;2.37;81.57
12471;BME280;36499;46.484;13.832;2023-02-22T02:40:17;93205.34;;;2.38;82.38
12471;BME280;36499;46.484;13.832;2023-02-22T02:42:57;93197.44;;;2.48;82.48
12471;BME280;36499;46.484;13.832;2023-02-22T02:45:32;93192.47;;;2.54;81.75
12471;BME280;36499;46.484;13.832;2023-02-22T02:48:06;93197.63;;;2.54;81.41
12471;BME280;36499;46.484;13.832;2023-02-22T02:50:40;93194.56;;;2.59;81.60
12471;BME280;36499;46.484;13.832;2023-02-22T02:53:10;93195.19;;;2.61;81.45
12471;BME280;36499;46.484;13.832;2023-02-22T02:55:37;93192.00;;;2.42;82.83
12471;BME280;36499;46.484;13.832;2023-02-22T02:58:06;93197.13;;;2.42;82.00
12471;BME280;36499;46.484;13.832;2023-02-22T03:00:38;93190.53;;;2.40;82.46
12471;BME280;36499;46.484;13.832;2023-02-22T03:03:35;93187.16;;;2.48;81.77
12471;BME280;36499;46.484;13.832;2023-02-22T03:09:37;93192.94;;;2.41;82.29
12471;BME280;36499;46.484;13.832;2023-02-22T03:12:20;93185.72;;;2.61;81.14
12471;BME280;36499;46.484;13.832;2023-02-22T03:15:04;93185.38;;;2.48;80.98
12471;BME280;36499;46.484;13.832;2023-02-22T03:17:45;93187.47;;;2.36;80.60
12471;BME280;36499;46.484;13.832;2023-02-22T03:20:21;93183.31;;;2.35;81.09
12471;BME280;36499;46.484;13.832;2023-02-22T03:23:03;93180.28;;;2.32;81.26
12471;BME280;36499;46.484;13.832;2023-02-22T03:25:37;93178.47;;;2.32;80.50
12471;BME280;36499;46.484;13.832;2023-02-22T03:28:10;93180.25;;;2.48;79.63
12471;BME280;36499;46.484;13.832;2023-02-22T03:30:46;93175.75;;;2.50;79.59
12471;BME280;36499;46.484;13.832;2023-02-22T03:33:18;93178.66;;;2.47;79.90
12471;BME280;36499;46.484;13.832;2023-02-22T03:35:55;93179.94;;;2.35;80.08
12471;BME280;36499;46.484;13.832;2023-02-22T03:38:28;93182.19;;;2.30;80.95
12471;BME280;36499;46.484;13.832;2023-02-22T03:41:00;93180.28;;;2.32;81.37
12471;BME280;36499;46.484;13.832;2023-02-22T03:43:33;93182.66;;;2.33;81.74
12471;BME280;36499;46.484;13.832;2023-02-22T03:46:03;93183.28;;;2.43;80.71
12471;BME280;36499;46.484;13.832;2023-02-22T03:48:40;93186.38;;;2.39;80.93
12471;BME280;36499;46.484;13.832;2023-02-22T03:51:11;93184.44;;;2.33;81.86
12471;BME280;36499;46.484;13.832;2023-02-22T03:53:42;93179.63;;;2.38;82.17
12471;BME280;36499;46.484;13.832;2023-02-22T03:56:16;93184.75;;;2.54;82.28
12471;BME280;36499;46.484;13.832;2023-02-22T03:58:47;93183.13;;;2.45;81.96
12471;BME280;36499;46.484;13.832;2023-02-22T04:01:16;93182.00;;;2.56;80.94
12471;BME280;36499;46.484;13.832;2023-02-22T04:03:44;93179.28;;;2.57;80.90
12471;BME280;36499;46.484;13.832;2023-02-22T04:06:13;93174.28;;;2.56;81.39
12471;BME280;36499;46.484;13.832;2023-02-22T04:08:40;93187.00;;;2.49;79.94
12471;BME280;36499;46.484;13.832;2023-02-22T04:11:08;93181.84;;;2.41;81.46
12471;BME280;36499;46.484;13.832;2023-02-22T04:13:35;93178.97;;;2.44;81.15
12471;BME280;36499;46.484;13.832;2023-02-22T04:16:03;93182.03;;;2.31;81.23
12471;BME280;36499;46.484;13.832;2023-02-22T04:18:30;93179.94;;;2.43;81.83
12471;BME280;36499;46.484;13.832;2023-02-22T04:20:57;93177.34;;;2.51;81.43
12471;BME280;36499;46.484;13.832;2023-02-22T04:23:25;93171.22;;;2.52;80.69
12471;BME280;36499;46.484;13.832;2023-02-22T04:25:52;93174.13;;;2.57;79.71
12471;BME280;36499;46.484;13.832;2023-02-22T04:28:20;93171.25;;;2.44;78.00
12471;BME280;36499;46.484;13.832;2023-02-22T04:30:47;93173.03;;;2.35;78.37
12471;BME280;36499;46.484;13.832;2023-02-22T04:33:14;93167.88;;;2.27;78.71
12471;BME280;36499;46.484;13.832;2023-02-22T04:35:41;93168.50;;;2.21;80.04
12471;BME280;36499;46.484;13.832;2023-02-22T04:38:08;93164.03;;;2.23;79.79
12471;BME280;36499;46.484;13.832;2023-02-22T04:40:37;93166.75;;;2.22;80.51
12471;BME280;36499;46.484;13.832;2023-02-22T04:43:05;93160.66;;;2.15;81.54
12471;BME280;36499;46.484;13.832;2023-02-22T04:45:32;93162.41;;;2.22;80.34
12471;BME280;36499;46.484;13.832;2023-02-22T04:47:59;93151.97;;;2.24;81.23
12471;BME280;36499;46.484;13.832;2023-02-22T04:50:26;93151.31;;;2.22;80.00
12471;BME280;36499;46.484;13.832;2023-02-22T04:52:53;93159.81;;;2.06;80.86
12471;BME280;36499;46.484;13.832;2023-02-22T04:55:21;93153.06;;;2.21;80.28
12471;BME280;36499;46.484;13.832;2023-02-22T04:57:49;93152.59;;;2.26;79.92
12471;BME280;36499;46.484;13.832;2023-02-22T05:00:18;93161.44;;;2.23;79.55
12471;BME280;36499;46.484;13.832;2023-02-22T05:02:47;93158.22;;;2.13;80.26
12471;BME280;36499;46.484;13.832;2023-02-22T05:05:17;93159.03;;;2.14;80.84
12471;BME280;36499;46.484;13.832;2023-02-22T05:07:44;93159.22;;;2.20;80.42
12471;BME280;36499;46.484;13.832;2023-02-22T05:10:11;93155.50;;;2.07;80.75
12471;BME280;36499;46.484;13.832;2023-02-22T05:12:39;93154.69;;;2.06;80.91
12471;BME280;36499;46.484;13.832;2023-02-22T05:15:09;93155.97;;;2.02;80.15
12471;BME280;36499;46.484;13.832;2023-02-22T05:17:36;93152.75;;;2.00;81.39
12471;BME280;36499;46.484;13.832;2023-02-22T05:20:04;93148.91;;;1.96;81.04
12471;BME280;36499;46.484;13.832;2023-02-22T05:22:33;93147.78;;;1.99;80.92
12471;BME280;36499;46.484;13.832;2023-02-22T05:25:01;93149.53;;;2.06;80.74
12471;BME280;36499;46.484;13.832;2023-02-22T05:27:28;93149.53;;;2.06;80.41
12471;BME280;36499;46.484;13.832;2023-02-22T05:29:55;93150.03;;;2.02;80.62
12471;BME280;36499;46.484;13.832;2023-02-22T05:32:23;93143.91;;;1.86;81.58
12471;BME280;36499;46.484;13.832;2023-02-22T05:34:51;93146.19;;;1.98;80.84
12471;BME280;36499;46.484;13.832;2023-02-22T05:37:18;93147.94;;;1.97;80.72
12471;BME280;36499;46.484;13.832;2023-02-22T05:39:45;93145.06;;;2.00;81.36
12471;BME280;36499;46.484;13.832;2023-02-22T05:42:12;93152.63;;;2.02;81.04
12471;BME280;36499;46.484;13.832;2023-02-22T05:44:39;93144.25;;;2.16;80.70
12471;BME280;36499;46.484;13.832;2023-02-22T05:47:06;93144.25;;;2.16;80.74
12471;BME280;36499;46.484;13.832;2023-02-22T05:49:34;93148.59;;;2.07;80.38
12471;BME280;36499;46.484;13.832;2023-02-22T05:52:01;93149.25;;;2.01;80.79
12471;BME280;36499;46.484;13.832;2023-02-22T05:54:28;93144.41;;;2.06;80.40
12471;BME280;36499;46.484;13.832;2023-02-22T05:56:55;93145.53;;;2.04;80.63
12471;BME280;36499;46.484;13.832;2023-02-22T05:59:22;93145.53;;;2.04;80.65
12471;BME280;36499;46.484;13.832;2023-02-22T06:01:49;93153.56;;;1.92;80.77
12471;BME280;36499;46.484;13.832;2023-02-22T06:04:16;93153.41;;;1.86;81.46
12471;BME280;36499;46.484;13.832;2023-02-22T06:06:46;93156.91;;;1.77;81.60
12471;BME280;36499;46.484;13.832;2023-02-22T06:09:13;93147.13;;;1.80;80.96
12471;BME280;36499;46.484;13.832;2023-02-22T06:11:40;93154.19;;;1.94;80.52
12471;BME280;36499;46.484;13.832;2023-02-22T06:14:07;93159.34;;;2.11;80.86
12471;BME280;36499;46.484;13.832;2023-02-22T06:16:34;93157.44;;;2.05;80.94
12471;BME280;36499;46.484;13.832;2023-02-22T06:19:01;93147.63;;;2.00;80.99
12471;BME280;36499;46.484;13.832;2023-02-22T06:21:28;93154.53;;;2.08;80.77
12471;BME280;36499;46.484;13.832;2023-02-22T06:23:57;93166.75;;;1.98;81.16
12471;BME280;36499;46.484;13.832;2023-02-22T06:26:24;93161.28;;;1.92;81.52
12471;BME280;36499;46.484;13.832;2023-02-22T06:28:51;93173.16;;;1.93;81.89
12471;BME280;36499;46.484;13.832;2023-02-22T06:31:18;93166.75;;;2.14;80.64
12471;BME280;36499;46.484;13.832;2023-02-22T06:33:45;93169.31;;;2.22;79.42
12471;BME280;36499;46.484;13.832;2023-02-22T06:36:12;93162.25;;;2.24;79.96
12471;BME280;36499;46.484;13.832;2023-02-22T06:38:39;93166.28;;;2.42;79.49
12471;BME280;36499;46.484;13.832;2023-02-22T06:41:08;93153.88;;;2.54;79.22
12471;BME280;36499;46.484;13.832;2023-02-22T06:43:35;93170.44;;;2.60;78.55
12471;BME280;36499;46.484;13.832;2023-02-22T06:46:02;93162.06;;;2.58;79.21
12471;BME280;36499;46.484;13.832;2023-02-22T06:48:29;93164.13;;;2.70;79.08
12471;BME280;36499;46.484;13.832;2023-02-22T06:50:56;93163.78;;;2.89;78.04
12471;BME280;36499;46.484;13.832;2023-02-22T06:53:23;93165.22;;;3.00;75.85
12471;BME280;36499;46.484;13.832;2023-02-22T06:55:53;93167.25;;;3.13;76.69
12471;BME280;36499;46.484;13.832;2023-02-22T06:58:21;93165.78;;;3.18;75.50
12471;BME280;36499;46.484;13.832;2023-02-22T07:00:48;93169.16;;;3.27;76.42
12471;BME280;36499;46.484;13.832;2023-02-22T07:03:15;93171.19;;;3.39;75.99
12471;BME280;36499;46.484;13.832;2023-02-22T07:05:42;93165.22;;;3.39;76.01
12471;BME280;36499;46.484;13.832;2023-02-22T07:08:11;93168.41;;;3.49;74.95
12471;BME280;36499;46.484;13.832;2023-02-22T07:10:39;93166.41;;;3.59;75.35
12471;BME280;36499;46.484;13.832;2023-02-22T07:13:07;93161.72;;;3.63;75.23
12471;BME280;36499;46.484;13.832;2023-02-22T07:15:36;93171.41;;;3.92;73.91
12471;BME280;36499;46.484;13.832;2023-02-22T07:18:03;93168.66;;;4.16;73.25
12471;BME280;36499;46.484;13.832;2023-02-22T07:20:31;93160.34;;;4.28;72.15
12471;BME280;36499;46.484;13.832;2023-02-22T07:22:59;93168.59;;;4.24;72.45
12471;BME280;36499;46.484;13.832;2023-02-22T07:25:26;93155.22;;;4.43;71.62
12471;BME280;36499;46.484;13.832;2023-02-22T07:27:53;93157.97;;;4.42;71.17
12471;BME280;36499;46.484;13.832;2023-02-22T07:30:23;93159.97;;;4.54;71.16
12471;BME280;36499;46.484;13.832;2023-02-22T07:32:53;93156.00;;;4.66;70.48
12471;BME280;36499;46.484;13.832;2023-02-22T07:35:24;93160.75;;;4.92;70.32
12471;BME280;36499;46.484;13.832;2023-02-22T07:37:51;93157.28;;;5.00;70.06
12471;BME280;36499;46.484;13.832;2023-02-22T07:40:19;93152.47;;;5.11;70.11
12471;BME280;36499;46.484;13.832;2023-02-22T07:42:55;93150.88;;;5.10;69.15
12471;BME280;36499;46.484;13.832;2023-02-22T07:45:24;93146.16;;;5.14;68.88
12471;BME280;36499;46.484;13.832;2023-02-22T07:47:54;93144.63;;;5.34;67.89
12471;BME280;36499;46.484;13.832;2023-02-22T07:50:23;93140.50;;;5.54;68.15
12471;BME280;36499;46.484;13.832;2023-02-22T07:52:53;93138.06;;;5.67;68.60
12471;BME280;36499;46.484;13.832;2023-02-22T07:55:23;93138.59;;;5.77;68.07
12471;BME280;36499;46.484;13.832;2023-02-22T07:57:54;93137.00;;;5.76;68.05
12471;BME280;36499;46.484;13.832;2023-02-22T08:00:24;93137.47;;;5.65;69.06
12471;BME280;36499;46.484;13.832;2023-02-22T08:02:54;93130.69;;;5.64;69.72
12471;BME280;36499;46.484;13.832;2023-02-22T08:05:24;93132.16;;;5.88;68.41
12471;BME280;36499;46.484;13.832;2023-02-22T08:07:51;93132.56;;;6.06;68.41
12471;BME280;36499;46.484;13.832;2023-02-22T08:10:21;93135.28;;;6.19;66.13
12471;BME280;36499;46.484;13.832;2023-02-22T08:12:50;93127.25;;;6.36;65.81
12471;BME280;36499;46.484;13.832;2023-02-22T08:15:22;93121.75;;;6.45;67.04
12471;BME280;36499;46.484;13.832;2023-02-22T08:17:50;93123.59;;;6.51;68.12
12471;BME280;36499;46.484;13.832;2023-02-22T08:20:19;93123.25;;;6.54;68.13
12471;BME280;36499;46.484;13.832;2023-02-22T08:22:47;93121.72;;;6.66;66.34
12471;BME280;36499;46.484;13.832;2023-02-22T08:25:17;93112.91;;;6.89;66.53
12471;BME280;36499;46.484;13.832;2023-02-22T08:27:45;93115.44;;;7.10;65.72
12471;BME280;36499;46.484;13.832;2023-02-22T08:30:15;93120.53;;;7.31;65.34
12471;BME280;36499;46.484;13.832;2023-02-22T08:32:44;93109.25;;;7.45;65.02
12471;BME280;36499;46.484;13.832;2023-02-22T08:35:11;93111.69;;;7.60;64.79
12471;BME280;36499;46.484;13.832;2023-02-22T08:37:43;93109.72;;;7.68;65.57
12471;BME280;36499;46.484;13.832;2023-02-22T08:40:12;93107.19;;;7.88;65.60
12471;BME280;36499;46.484;13.832;2023-02-22T08:42:42;93111.84;;;8.06;66.22
12471;BME280;36499;46.484;13.832;2023-02-22T08:45:09;93105.25;;;8.23;64.99
12471;BME280;36499;46.484;13.832;2023-02-22T08:47:38;93105.13;;;8.31;63.74
12471;BME280;36499;46.484;13.832;2023-02-22T08:50:07;93102.72;;;8.36;64.90
12471;BME280;36499;46.484;13.832;2023-02-22T08:52:34;93099.50;;;8.34;64.43
12471;BME280;36499;46.484;13.832;2023-02-22T08:55:04;93106.31;;;8.29;64.41
12471;BME280;36499;46.484;13.832;2023-02-22T08:57:31;93102.88;;;8.28;65.00
12471;BME280;36499;46.484;13.832;2023-02-22T08:59:58;93105.13;;;8.31;64.91
12471;BME280;36499;46.484;13.832;2023-02-22T09:02:25;93106.47;;;8.27;64.63
12471;BME280;36499;46.484;13.832;2023-02-22T09:04:52;93108.25;;;8.27;64.73
12471;BME280;36499;46.484;13.832;2023-02-22T09:07:19;93113.09;;;8.30;64.96
12471;BME280;36499;46.484;13.832;2023-02-22T09:09:46;93109.50;;;8.31;64.58
12471;BME280;36499;46.484;13.832;2023-02-22T09:12:14;93111.91;;;8.32;64.82
12471;BME280;36499;46.484;13.832;2023-02-22T09:14:41;93118.66;;;8.27;65.07
12471;BME280;36499;46.484;13.832;2023-02-22T09:17:09;93118.31;;;8.36;64.87
12471;BME280;36499;46.484;13.832;2023-02-22T09:19:36;93116.72;;;8.48;63.75
12471;BME280;36499;46.484;13.832;2023-02-22T09:22:03;93112.72;;;8.79;61.62
12471;BME280;36499;46.484;13.832;2023-02-22T09:24:30;93110.47;;;9.15;60.16
12471;BME280;36499;46.484;13.832;2023-02-22T09:26:57;93103.75;;;9.58;58.67
12471;BME280;36499;46.484;13.832;2023-02-22T09:29:26;93099.22;;;9.92;56.83
12471;BME280;36499;46.484;13.832;2023-02-22T09:31:54;93103.03;;;10.27;55.55
12471;BME280;36499;46.484;13.832;2023-02-22T09:34:23;93095.16;;;10.65;54.40
12471;BME280;36499;46.484;13.832;2023-02-22T09:36:55;93096.72;;;10.73;52.68
12471;BME280;36499;46.484;13.832;2023-02-22T09:39:23;93089.22;;;11.01;53.47
12471;BME280;36499;46.484;13.832;2023-02-22T09:42:01;93085.63;;;11.02;52.24
12471;BME280;36499;46.484;13.832;2023-02-22T09:44:40;93086.38;;;11.27;51.53
12471;BME280;36499;46.484;13.832;2023-02-22T09:47:14;93084.97;;;11.61;51.26
12471;BME280;36499;46.484;13.832;2023-02-22T09:49:55;93089.00;;;11.64;49.94
12471;BME280;36499;46.484;13.832;2023-02-22T09:52:29;93084.94;;;11.68;50.04
12471;BME280;36499;46.484;13.832;2023-02-22T09:55:08;93079.81;;;11.91;48.57
12471;BME280;36499;46.484;13.832;2023-02-22T09:57:39;93079.63;;;11.92;48.42
12471;BME280;36499;46.484;13.832;2023-02-22T10:00:17;93078.34;;;12.13;48.52
12471;BME280;36499;46.484;13.832;2023-02-22T10:02:53;93080.81;;;12.08;47.44
12471;BME280;36499;46.484;13.832;2023-02-22T10:05:31;93071.94;;;12.39;47.44
12471;BME280;36499;46.484;13.832;2023-02-22T10:08:05;93059.59;;;12.58;47.89
12471;BME280;36499;46.484;13.832;2023-02-22T10:10:40;93060.78;;;12.85;46.89
12471;BME280;36499;46.484;13.832;2023-02-22T10:13:28;93052.00;;;12.79;45.88
12471;BME280;36499;46.484;13.832;2023-02-22T10:16:05;93049.16;;;12.92;45.63
12471;BME280;36499;46.484;13.832;2023-02-22T10:19:03;93049.16;;;13.04;46.53
12471;BME280;36499;46.484;13.832;2023-02-22T10:24:58;93048.03;;;13.35;46.17
12471;BME280;36499;46.484;13.832;2023-02-22T10:27:32;93046.13;;;13.19;45.60
12471;BME280;36499;46.484;13.832;2023-02-22T10:30:07;93049.75;;;13.29;45.20
12471;BME280;36499;46.484;13.832;2023-02-22T10:32:45;93042.69;;;13.30;44.76
12471;BME280;36499;46.484;13.832;2023-02-22T10:35:20;93033.91;;;13.36;44.60
12471;BME280;36499;46.484;13.832;2023-02-22T10:37:53;93032.63;;;13.62;44.48
12471;BME280;36499;46.484;13.832;2023-02-22T10:40:23;93034.63;;;13.71;44.49
12471;BME280;36499;46.484;13.832;2023-02-22T10:43:00;93032.22;;;13.70;43.67
12471;BME280;36499;46.484;13.832;2023-02-22T10:45:31;93032.94;;;13.93;43.65
12471;BME280;36499;46.484;13.832;2023-02-22T10:48:05;93025.09;;;13.65;42.68
12471;BME280;36499;46.484;13.832;2023-02-22T10:50:39;93025.78;;;13.89;43.85
12471;BME280;36499;46.484;13.832;2023-02-22T10:53:09;93023.50;;;13.53;44.39
12471;BME280;36499;46.484;13.832;2023-02-22T10:56:07;93015.53;;;13.87;42.85
12471;BME280;36499;46.484;13.832;2023-02-22T10:58:45;93019.16;;;13.98;43.80
12471;BME280;36499;46.484;13.832;2023-02-22T11:01:24;93011.88;;;14.17;43.02
12471;BME280;36499;46.484;13.832;2023-02-22T11:04:01;93013.84;;;13.81;43.33
12471;BME280;36499;46.484;13.832;2023-02-22T11:06:31;93004.81;;;14.17;43.00
12471;BME280;36499;46.484;13.832;2023-02-22T11:09:10;93004.13;;;14.38;42.79
12471;BME280;36499;46.484;13.832;2023-02-22T11:11:41;92996.50;;;14.54;43.71
12471;BME280;36499;46.484;13.832;2023-02-22T11:14:10;92989.16;;;14.22;44.50
12471;BME280;36499;46.484;13.832;2023-02-22T11:16:41;92991.03;;;14.72;44.44
12471;BME280;36499;46.484;13.832;2023-02-22T11:19:18;92987.44;;;14.61;44.36
12471;BME280;36499;46.484;13.832;2023-02-22T11:21:50;92984.41;;;15.03;42.96
12471;BME280;36499;46.484;13.832;2023-02-22T11:24:20;92976.75;;;15.01;43.51
12471;BME280;36499;46.484;13.832;2023-02-22T11:26:54;92984.50;;;14.91;43.64
12471;BME280;36499;46.484;13.832;2023-02-22T11:29:27;92977.69;;;14.57;44.21
12471;BME280;36499;46.484;13.832;2023-02-22T11:31:57;92983.00;;;14.78;44.74
12471;BME280;36499;46.484;13.832;2023-02-22T11:34:33;92978.97;;;15.09;44.66
12471;BME280;36499;46.484;13.832;2023-02-22T11:37:29;92968.81;;;14.96;44.87
12471;BME280;36499;46.484;13.832;2023-02-22T11:40:12;92972.59;;;14.67;45.35
12471;BME280;36499;46.484;13.832;2023-02-22T11:42:42;92961.28;;;14.66;44.84
12471;BME280;36499;46.484;13.832;2023-02-22T11:45:14;92957.03;;;14.99;45.19
12471;BME280;36499;46.484;13.832;2023-02-22T11:47:54;92952.44;;;14.89;44.27
12471;BME280;36499;46.484;13.832;2023-02-22T11:50:28;92950.78;;;14.66;45.58
12471;BME280;36499;46.484;13.832;2023-02-22T11:53:21;92951.38;;;14.52;45.26
12471;BME280;36499;46.484;13.832;2023-02-22T11:56:12;92946.22;;;14.12;45.30
12471;BME280;36499;46.484;13.832;2023-02-22T11:58:46;92943.72;;;14.17;45.94
12471;BME280;36499;46.484;13.832;2023-02-22T12:01:22;92947.28;;;14.11;46.13
12471;BME280;36499;46.484;13.832;2023-02-22T12:07:52;92942.91;;;14.00;46.60
12471;BME280;36499;46.484;13.832;2023-02-22T12:10:39;92941.16;;;14.05;46.36
12471;BME280;36499;46.484;13.832;2023-02-22T12:13:29;92936.97;;;14.21;46.41
12471;BME280;36499;46.484;13.832;2023-02-22T12:16:10;92937.69;;;14.33;46.37
12471;BME280;36499;46.484;13.832;2023-02-22T12:18:51;92938.63;;;14.27;45.62
12471;BME280;36499;46.484;13.832;2023-02-22T12:21:26;92927.97;;;14.33;45.37
12471;BME280;36499;46.484;13.832;2023-02-22T12:24:02;92936.28;;;13.97;45.98
12471;BME280;36499;46.484;13.832;2023-02-22T12:26:33;92930.03;;;13.98;45.97
12471;BME280;36499;46.484;13.832;2023-02-22T12:29:11;92924.09;;;14.03;46.30
12471;BME280;36499;46.484;13.832;2023-02-22T12:31:43;92930.75;;;14.10;46.17
12471;BME280;36499;46.484;13.832;2023-02-22T12:34:30;92929.72;;;14.11;46.10
12471;BME280;36499;46.484;13.832;2023-02-22T12:37:11;92924.06;;;14.19;46.19
12471;BME280;36499;46.484;13.832;2023-02-22T12:39:52;92917.50;;;14.33;46.57
12471;BME280;36499;46.484;13.832;2023-02-22T12:42:29;92922.50;;;14.35;46.08
12471;BME280;36499;46.484;13.832;2023-02-22T12:45:05;92911.63;;;14.43;45.33
12471;BME280;36499;46.484;13.832;2023-02-22T12:47:42;92915.16;;;14.70;45.35
12471;BME280;36499;46.484;13.832;2023-02-22T12:50:19;92906.28;;;14.71;45.13
12471;BME280;36499;46.484;13.832;2023-02-22T12:52:55;92912.72;;;14.64;44.87
12471;BME280;36499;46.484;13.832;2023-02-22T12:55:32;92908.31;;;14.86;43.98
12471;BME280;36499;46.484;13.832;2023-02-22T12:58:17;92905.25;;;15.16;44.56
12471;BME280;36499;46.484;13.832;2023-02-22T13:00:51;92904.28;;;15.22;44.75
12471;BME280;36499;46.484;13.832;2023-02-22T13:03:32;92893.69;;;15.38;44.32
12471;BME280;36499;46.484;13.832;2023-02-22T13:06:23;92891.06;;;15.60;44.13
12471;BME280;36499;46.484;13.832;2023-02-22T13:09:07;92884.06;;;15.44;43.54
12471;BME280;36499;46.484;13.832;2023-02-22T13:11:51;92886.06;;;15.86;42.19
12471;BME280;36499;46.484;13.832;2023-02-22T13:14:40;92884.25;;;15.91;42.85
12471;BME280;36499;46.484;13.832;2023-02-22T13:17:19;92877.22;;;15.97;43.02
12471;BME280;36499;46.484;13.832;2023-02-22T13:19:57;92880.72;;;16.07;42.53
12471;BME280;36499;46.484;13.832;2023-02-22T13:22:33;92873.13;;;16.43;42.26
12471;BME280;36499;46.484;13.832;2023-02-22T13:25:09;92871.94;;;16.28;42.84
12471;BME280;36499;46.484;13.832;2023-02-22T13:27:46;92865.34;;;16.58;42.18
12471;BME280;36499;46.484;13.832;2023-02-22T13:33:27;92873.22;;;15.89;42.75
12471;BME280;36499;46.484;13.832;2023-02-22T13:36:17;92867.13;;;16.15;42.40
12471;BME280;36499;46.484;13.832;2023-02-22T13:39:26;92862.59;;;16.11;42.62
12471;BME280;36499;46.484;13.832;2023-02-22T13:42:23;92867.00;;;16.00;42.50